Terminal Aerodrome Forecast
Issued by NWS Tulsa, OK

Home | Current Version | Previous Version | Text Only | Print | Product List | Glossary Off
Versions: 1 2 3 4 5 6 7 8 9 10 11 12 13 14 15 16 17 18 19 20 21 22

000
FTUS44 KTSA 231100
TAFTUL
TAF
KTUL 231126Z 2312/2412 16008KT P6SM BKN006
     FM231500 17011G21KT P6SM OVC015
     FM231800 25015G30KT P6SM SCT025 BKN050
     FM232300 30015G30KT P6SM BKN050 PROB30 2323/2403 4SM -RA BR
      BKN025
     FM240600 27009KT P6SM SKC=

USA.gov is the U.S. government's official web portal to all federal, state and local government web resources and services.